Time;durP1;ratioP1;P1;durP2;ratioP2;P2;SDS_P1;SDS_P2;PMS_P1;PMS_P2;Temp;Humidity;BMP_temperature;BMP_pressure;BME280_temperature;BME280_humidity;BME280_pressure;Samples;Min_cycle;Max_cycle;Signal;HPM_P1;HPM_P2
2022/08/04 00:00:44;;;;;;;11.40;4.75;;;;;;;20.93;52.75;100643.44;5111525;28;20050;-26
2022/08/04 00:03:18;;;;;;;;;;;;;;;20.87;52.90;100648.16;5091519;28;20100;-26
2022/08/04 00:06:04;;;;;;;6.88;4.57;;;;;;;20.84;53.18;100644.81;5093905;28;20282;-26
2022/08/04 00:08:36;;;;;;;4.45;4.05;;;;;;;20.74;53.23;100652.47;5111359;28;20170;-26
2022/08/04 00:11:02;;;;;;;5.82;4.20;;;;;;;20.71;53.65;100648.09;5088511;28;20035;-25
2022/08/04 00:13:31;;;;;;;4.30;3.80;;;;;;;20.67;53.65;100646.53;5099304;28;20024;-26
2022/08/04 00:15:58;;;;;;;8.50;4.85;;;;;;;20.67;53.99;100648.38;5110242;28;20436;-26
2022/08/04 00:18:34;;;;;;;5.28;4.78;;;;;;;20.67;53.97;100645.69;5111741;28;20031;-26
2022/08/04 00:21:04;;;;;;;4.78;3.97;;;;;;;20.64;54.50;100638.66;5076655;28;20508;-26
2022/08/04 00:23:33;;;;;;;7.55;5.15;;;;;;;20.61;54.76;100645.03;5111553;28;20031;-26
2022/08/04 00:25:59;;;;;;;5.28;4.50;;;;;;;20.57;54.27;100635.44;5104351;28;20036;-26
2022/08/04 00:28:24;;;;;;;16.90;5.07;;;;;;;20.53;54.35;100639.22;5102262;28;20031;-24
2022/08/04 00:30:50;;;;;;;6.25;4.45;;;;;;;20.45;54.14;100641.44;5092888;28;20031;-25
2022/08/04 00:33:19;;;;;;;10.10;4.50;;;;;;;20.46;54.33;100637.78;5101539;28;20514;-26
2022/08/04 00:35:47;;;;;;;5.40;4.35;;;;;;;20.48;54.37;100643.97;5096532;28;20023;-25
2022/08/04 00:38:14;;;;;;;10.68;4.70;;;;;;;20.46;54.79;100637.78;5082448;28;20028;-26
2022/08/04 00:40:42;;;;;;;11.25;4.60;;;;;;;20.41;54.58;100643.41;5093067;28;20106;-26
2022/08/04 00:43:29;;;;;;;5.07;4.57;;;;;;;20.37;54.82;100634.66;5110089;28;20056;-26
2022/08/04 00:46:31;;;;;;;10.75;5.00;;;;;;;20.33;55.33;100633.09;5100620;28;20020;-26
2022/08/04 00:49:22;;;;;;;6.88;4.68;;;;;;;20.32;55.83;100628.69;5100441;28;20095;-26
2022/08/04 00:52:22;;;;;;;5.25;4.75;;;;;;;20.28;55.86;100636.94;5109140;28;20535;-26
2022/08/04 00:55:11;;;;;;;8.85;5.00;;;;;;;20.28;55.59;100632.47;5104744;28;20028;-26
2022/08/04 00:57:50;;;;;;;6.85;4.97;;;;;;;20.28;55.97;100635.13;5099857;28;20081;-26
2022/08/04 01:00:16;;;;;;;6.65;4.97;;;;;;;20.27;55.99;100630.69;5105673;28;20593;-26
2022/08/04 01:03:00;;;;;;;7.78;4.57;;;;;;;20.12;55.44;100638.59;5110808;28;20044;-25
2022/08/04 01:05:43;;;;;;;6.45;4.45;;;;;;;20.03;55.04;100636.34;5105999;28;20032;-25
2022/08/04 01:08:32;;;;;;;5.47;4.28;;;;;;;20.04;55.57;100638.06;5110821;28;20023;-26
2022/08/04 01:11:04;;;;;;;4.65;4.20;;;;;;;19.99;55.05;100634.75;5081931;28;20043;-26
2022/08/04 01:14:08;;;;;;;5.97;4.40;;;;;;;19.96;55.04;100645.59;5100241;28;20383;-26
2022/08/04 01:16:34;;;;;;;4.80;4.40;;;;;;;19.91;55.17;100642.28;5090085;28;20054;-25
2022/08/04 01:19:40;;;;;;;5.75;4.60;;;;;;;19.88;54.86;100633.44;5090916;28;20111;-24
2022/08/04 01:22:28;;;;;;;8.05;4.70;;;;;;;19.84;55.52;100629.19;5086129;28;20019;-25
2022/08/04 01:25:01;;;;;;;6.32;4.80;;;;;;;19.91;55.20;100634.25;5109056;28;20023;-26
2022/08/04 01:27:39;;;;;;;6.93;4.85;;;;;;;19.87;56.18;100639.75;5111392;28;20023;-26
2022/08/04 01:30:04;;;;;;;4.70;4.30;;;;;;;19.82;55.89;100639.13;5092324;28;20516;-26
2022/08/04 01:32:34;;;;;;;7.13;5.07;;;;;;;19.77;56.15;100635.78;5109219;28;20110;-26
2022/08/04 01:35:03;;;;;;;4.95;4.45;;;;;;;19.78;56.49;100632.19;5086897;28;20022;-25
2022/08/04 01:37:35;;;;;;;6.28;4.78;;;;;;;19.74;55.91;100635.97;5110990;28;20031;-25
2022/08/04 01:40:05;;;;;;;8.45;4.93;;;;;;;19.77;55.83;100640.28;5092029;28;20023;-26
2022/08/04 01:42:32;;;;;;;5.32;4.88;;;;;;;19.74;55.55;100636.81;5104057;28;20020;-26
2022/08/04 01:45:00;;;;;;;5.00;4.50;;;;;;;19.62;55.38;100637.41;5106938;28;20095;-25
2022/08/04 01:47:28;;;;;;;4.97;4.57;;;;;;;19.56;55.12;100632.34;5106289;28;20118;-26
2022/08/04 01:49:54;;;;;;;5.35;4.57;;;;;;;19.50;55.11;100625.47;5114918;28;20028;-25
2022/08/04 01:52:19;;;;;;;6.40;4.32;;;;;;;19.47;55.21;100633.63;5091868;28;20037;-26
2022/08/04 01:54:45;;;;;;;5.72;4.80;;;;;;;19.46;55.42;100629.22;5114840;28;20371;-25
2022/08/04 01:57:11;;;;;;;5.72;4.43;;;;;;;19.43;55.92;100632.03;5105153;28;20027;-25
2022/08/04 01:59:37;;;;;;;7.80;5.07;;;;;;;19.40;55.45;100627.72;5081019;28;20019;-24
2022/08/04 02:02:04;;;;;;;4.88;4.57;;;;;;;19.33;55.49;100628.94;5112044;28;20482;-25
2022/08/04 02:04:30;;;;;;;4.78;4.38;;;;;;;19.31;55.74;100631.69;5113536;28;20027;-25
2022/08/04 02:07:14;;;;;;;6.32;5.00;;;;;;;19.31;56.32;100639.69;5112895;28;20532;-25
2022/08/04 02:09:45;;;;;;;5.40;5.00;;;;;;;19.31;56.37;100634.34;5106964;28;20123;-25
2022/08/04 02:12:30;;;;;;;4.70;4.30;;;;;;;19.27;56.70;100638.13;5095408;28;20012;-25
2022/08/04 02:15:00;;;;;;;4.88;4.38;;;;;;;19.19;56.44;100634.94;5114021;28;20419;-26
2022/08/04 02:17:31;;;;;;;4.65;4.25;;;;;;;19.17;56.28;100640.34;5113484;28;20028;-25
2022/08/04 02:20:18;;;;;;;6.95;5.38;;;;;;;19.26;56.36;100636.38;5094158;28;20549;-24
2022/08/04 02:22:57;;;;;;;5.13;4.80;;;;;;;19.24;56.37;100632.91;5088009;28;20023;-25
2022/08/04 02:25:25;;;;;;;5.10;4.68;;;;;;;19.17;56.32;100628.81;5108666;28;20020;-24
2022/08/04 02:28:12;;;;;;;4.25;3.85;;;;;;;19.16;56.72;100629.72;5107757;28;20059;-25
2022/08/04 02:31:03;;;;;;;4.72;4.32;;;;;;;19.08;56.28;100628.25;5092854;28;20475;-25
2022/08/04 02:33:37;;;;;;;6.10;4.30;;;;;;;19.07;56.85;100631.00;5094148;28;20080;-25
2022/08/04 02:36:03;;;;;;;5.07;4.68;;;;;;;19.08;56.67;100627.41;5094896;28;20463;-25
2022/08/04 02:38:39;;;;;;;5.13;4.72;;;;;;;19.06;56.44;100629.25;5111864;28;20028;-26
2022/08/04 02:41:06;;;;;;;4.70;4.30;;;;;;;19.02;56.58;100631.22;5095364;28;20016;-26
2022/08/04 02:43:34;;;;;;;4.63;4.22;;;;;;;18.99;56.21;100628.66;5104139;28;20105;-25
2022/08/04 02:46:01;;;;;;;5.18;4.78;;;;;;;18.96;56.43;100623.44;5091347;28;20445;-25
2022/08/04 02:48:27;;;;;;;6.00;4.80;;;;;;;18.94;56.12;100620.84;5095160;28;20028;-25
2022/08/04 02:50:53;;;;;;;4.85;4.50;;;;;;;18.85;56.18;100616.78;5093843;28;20422;-22
2022/08/04 02:53:21;;;;;;;5.00;4.60;;;;;;;18.81;56.36;100611.66;5099512;28;20368;-25
2022/08/04 02:55:47;;;;;;;4.82;4.43;;;;;;;18.77;56.10;100607.41;5092835;28;20024;-25
2022/08/04 02:58:14;;;;;;;6.03;4.75;;;;;;;18.74;55.87;100611.03;5110746;28;20077;-25
2022/08/04 03:00:39;;;;;;;5.45;4.95;;;;;;;18.71;56.62;100604.03;5094581;28;20373;-26
2022/08/04 03:03:05;;;;;;;4.97;4.68;;;;;;;18.79;56.66;100606.38;5109884;28;20064;-25
2022/08/04 03:05:33;;;;;;;5.00;4.60;;;;;;;18.68;56.41;100608.66;5110945;28;20035;-23
2022/08/04 03:08:24;;;;;;;5.43;4.80;;;;;;;18.64;56.50;100613.25;5113643;27;20273;-23
2022/08/04 03:11:14;;;;;;;8.20;5.05;;;;;;;18.60;56.48;100606.31;5110244;28;20031;-26
2022/08/04 03:14:09;;;;;;;14.10;5.28;;;;;;;18.64;56.64;100604.41;5103909;28;20106;-25
2022/08/04 03:16:59;;;;;;;8.95;5.28;;;;;;;18.61;56.93;100612.53;5107118;27;20027;-25
2022/08/04 03:19:24;;;;;;;7.28;4.97;;;;;;;18.60;57.37;100617.00;5108720;27;20039;-25
2022/08/04 03:22:08;;;;;;;7.43;5.03;;;;;;;18.56;57.76;100621.63;5111158;27;20023;-25
2022/08/04 03:25:06;;;;;;;8.60;4.80;;;;;;;18.54;57.64;100618.16;5106703;28;20292;-25
2022/08/04 03:27:37;;;;;;;12.02;5.30;;;;;;;18.50;57.16;100627.22;5088504;28;20382;-25
2022/08/04 03:30:16;;;;;;;5.20;4.03;;;;;;;18.49;58.02;100628.16;5112952;28;20043;-25
2022/08/04 03:33:20;;;;;;;7.03;4.70;;;;;;;18.43;57.43;100631.09;5105723;28;20435;-25
2022/08/04 03:36:14;;;;;;;8.55;5.10;;;;;;;18.50;58.08;100627.22;5050685;28;20063;-25
2022/08/04 03:38:58;;;;;;;5.80;5.03;;;;;;;18.43;57.29;100631.09;5102183;28;20019;-25
2022/08/04 03:41:36;;;;;;;6.85;4.97;;;;;;;18.44;57.90;100627.50;5106594;28;20550;-25
2022/08/04 03:44:13;;;;;;;5.85;4.85;;;;;;;18.42;57.90;100632.03;5106443;28;20398;-25
2022/08/04 03:46:53;;;;;;;7.13;4.50;;;;;;;18.45;58.22;100639.91;5105743;28;20028;-25
2022/08/04 03:50:01;;;;;;;5.88;4.72;;;;;;;18.36;57.49;100629.63;5104739;28;20032;-25
2022/08/04 03:55:59;;;;;;;10.15;5.25;;;;;;;18.33;57.57;100631.50;5089386;28;20037;-25
2022/08/04 03:59:02;;;;;;;13.30;5.20;;;;;;;18.31;57.76;100627.16;5085296;28;20028;-25
2022/08/04 04:02:12;;;;;;;15.38;5.45;;;;;;;18.33;58.64;100626.16;5111377;28;20822;-25
2022/08/04 04:05:20;;;;;;;5.60;4.93;;;;;;;18.29;57.88;100626.34;5075540;28;20139;-25
2022/08/04 04:08:17;;;;;;;9.50;5.13;;;;;;;18.19;58.05;100631.22;5078151;28;20026;-25
2022/08/04 04:11:05;;;;;;;7.82;4.72;;;;;;;18.23;58.08;100621.28;5062027;28;20360;-25
2022/08/04 04:14:07;;;;;;;7.13;4.93;;;;;;;18.16;57.75;100624.19;5090388;28;20031;-25
2022/08/04 04:16:57;;;;;;;8.48;4.57;;;;;;;18.23;58.14;100623.94;5104277;28;20721;-25
2022/08/04 04:19:41;;;;;;;6.93;4.47;;;;;;;18.29;58.54;100624.56;5077032;28;20047;-25
2022/08/04 04:22:20;;;;;;;12.77;5.85;;;;;;;18.23;57.78;100630.13;5087870;28;20556;-24
2022/08/04 04:25:04;;;;;;;10.25;5.95;;;;;;;18.23;58.01;100619.47;5092165;28;20027;-25
2022/08/04 04:27:40;;;;;;;7.85;5.10;;;;;;;18.22;57.97;100628.41;5110036;28;20023;-25
2022/08/04 04:30:17;;;;;;;8.25;4.95;;;;;;;18.21;57.96;100621.34;5098528;28;20031;-25
2022/08/04 04:33:04;;;;;;;6.07;4.50;;;;;;;18.17;57.81;100627.75;5085483;28;20096;-25
2022/08/04 04:35:58;;;;;;;6.60;4.85;;;;;;;18.27;57.67;100620.22;5106740;28;20372;-25
2022/08/04 04:38:44;;;;;;;6.47;4.95;;;;;;;18.19;57.58;100623.19;5074614;28;20031;-25
2022/08/04 04:41:09;;;;;;;6.45;5.85;;;;;;;18.21;57.85;100626.69;5083902;28;20061;-25
2022/08/04 04:43:44;;;;;;;6.07;5.10;;;;;;;18.22;57.64;100628.41;5107992;28;20027;-26
2022/08/04 04:46:15;;;;;;;5.43;4.93;;;;;;;18.14;58.20;100626.06;5098870;28;20028;-25
2022/08/04 04:48:40;;;;;;;6.82;4.57;;;;;;;18.17;57.72;100633.94;5112242;28;20080;-25
2022/08/04 04:51:14;;;;;;;4.97;4.47;;;;;;;18.14;57.67;100635.88;5110986;28;20031;-25
2022/08/04 04:54:11;;;;;;;5.60;4.95;;;;;;;18.15;58.02;100625.16;5103706;28;20155;-25
2022/08/04 04:57:13;;;;;;;5.55;5.05;;;;;;;18.22;57.55;100628.41;5104322;28;20027;-25
2022/08/04 04:59:55;;;;;;;10.02;5.50;;;;;;;18.22;59.27;100631.09;5101203;28;20383;-25
2022/08/04 05:02:48;;;;;;;5.25;4.75;;;;;;;18.26;59.26;100635.34;5089690;28;20019;-25
2022/08/04 05:05:25;;;;;;;8.38;5.35;;;;;;;18.26;59.48;100627.34;5107853;28;20031;-25
2022/08/04 05:08:21;;;;;;;6.47;4.88;;;;;;;18.28;59.13;100633.47;5095303;28;20023;-25
2022/08/04 05:10:55;;;;;;;8.73;5.63;;;;;;;18.31;59.26;100632.50;5079126;28;20586;-25
2022/08/04 05:13:30;;;;;;;7.15;5.05;;;;;;;18.33;59.27;100636.84;5099661;28;20037;-25
2022/08/04 05:16:01;;;;;;;5.13;4.72;;;;;;;18.37;58.87;100636.72;5092254;28;20028;-25
2022/08/04 05:18:30;;;;;;;6.65;4.88;;;;;;;18.40;58.94;100636.56;5095759;28;20035;-25
2022/08/04 05:21:10;;;;;;;5.90;5.30;;;;;;;18.45;59.00;100639.91;5100385;28;20023;-25
2022/08/04 05:23:38;;;;;;;5.95;4.85;;;;;;;18.57;59.38;100639.38;5099772;28;20493;-25
2022/08/04 05:26:07;;;;;;;5.30;4.80;;;;;;;18.62;59.04;100635.63;5118773;28;20073;-25
2022/08/04 05:28:42;;;;;;;5.05;4.60;;;;;;;18.66;58.64;100638.13;5115649;28;20088;-25
2022/08/04 05:31:13;;;;;;;5.35;4.85;;;;;;;18.72;58.47;100636.97;5083414;28;20521;-25
2022/08/04 05:33:39;;;;;;;;;;;;;;;18.82;58.22;100637.44;5096991;28;20040;-25
2022/08/04 05:36:09;;;;;;;6.97;5.40;;;;;;;18.87;57.99;100634.56;5080112;28;19908;-25
2022/08/04 05:38:37;;;;;;;6.28;5.20;;;;;;;18.92;57.84;100638.78;5098196;28;20027;-25
2022/08/04 05:41:03;;;;;;;5.85;5.35;;;;;;;18.98;57.65;100629.63;5079881;28;20016;-25
2022/08/04 05:43:29;;;;;;;5.20;4.75;;;;;;;19.01;57.47;100632.16;5095561;28;20040;-25
2022/08/04 05:45:56;;;;;;;5.28;4.32;;;;;;;19.07;57.44;100631.88;5097677;28;20027;-26
2022/08/04 05:48:23;;;;;;;5.28;4.78;;;;;;;19.12;57.37;100628.13;5085302;28;20490;-25
2022/08/04 05:50:48;;;;;;;4.97;4.57;;;;;;;19.17;57.50;100636.81;5083594;28;20042;-25
2022/08/04 05:53:14;;;;;;;5.28;4.70;;;;;;;19.20;57.27;100634.00;5079606;28;20028;-25
2022/08/04 05:55:40;;;;;;;6.18;4.57;;;;;;;19.28;57.32;100634.53;5079537;28;20035;-25
2022/08/04 05:58:05;;;;;;;6.18;5.07;;;;;;;19.35;57.18;100622.56;5097839;28;20047;-25
2022/08/04 06:00:32;;;;;;;5.35;4.85;;;;;;;19.41;57.34;100634.78;5096183;28;20462;-25
2022/08/04 06:02:58;;;;;;;5.50;5.10;;;;;;;19.46;57.27;100631.91;5117586;28;20023;-25
2022/08/04 06:05:23;;;;;;;5.13;4.72;;;;;;;19.52;57.00;100628.94;5100042;28;20049;-25
2022/08/04 06:07:49;;;;;;;5.70;5.20;;;;;;;19.58;56.77;100634.00;5079164;28;20024;-24
2022/08/04 06:10:15;;;;;;;5.85;5.18;;;;;;;19.66;56.70;100624.72;5097446;28;20019;-25
2022/08/04 06:12:45;;;;;;;5.47;4.90;;;;;;;19.71;56.53;100636.94;5097412;28;20546;-25
2022/08/04 06:15:13;;;;;;;5.35;4.95;;;;;;;19.77;56.26;100630.44;5063022;28;20130;-25
2022/08/04 06:17:41;;;;;;;5.85;4.88;;;;;;;19.85;56.53;100620.22;5115457;28;20517;-25
2022/08/04 06:20:08;;;;;;;5.32;4.82;;;;;;;19.93;56.38;100629.69;5097760;28;20027;-25
2022/08/04 06:22:34;;;;;;;5.70;5.30;;;;;;;20.02;56.14;100628.41;5107101;28;20015;-25
2022/08/04 06:25:00;;;;;;;5.80;5.28;;;;;;;20.10;56.02;100621.72;5099664;28;20019;-25
2022/08/04 06:27:27;;;;;;;6.95;5.13;;;;;;;20.20;55.82;100619.44;5099318;28;20038;-25
2022/08/04 06:29:54;;;;;;;6.20;5.70;;;;;;;20.31;55.66;100629.59;5085363;28;20031;-25
2022/08/04 06:32:26;;;;;;;5.47;4.93;;;;;;;20.41;55.62;100624.66;5059396;28;20028;-26
2022/08/04 06:34:56;;;;;;;5.70;5.20;;;;;;;20.52;56.05;100621.41;5092211;28;20028;-25
2022/08/04 06:37:23;;;;;;;6.38;5.07;;;;;;;20.64;55.63;100622.56;5096545;28;20039;-25
2022/08/04 06:39:48;;;;;;;5.90;5.40;;;;;;;20.77;55.81;100625.47;5075558;28;20032;-25
2022/08/04 06:42:15;;;;;;;6.03;5.40;;;;;;;20.89;55.13;100635.59;5103141;28;20031;-25
2022/08/04 06:44:41;;;;;;;7.90;5.20;;;;;;;21.01;55.52;100623.34;5114109;28;20039;-26
2022/08/04 06:47:07;;;;;;;5.72;5.07;;;;;;;21.14;54.97;100625.38;5079127;28;20019;-25
2022/08/04 06:49:33;;;;;;;5.72;4.90;;;;;;;21.27;55.05;100625.53;5114052;28;20425;-25
2022/08/04 06:51:59;;;;;;;5.47;5.07;;;;;;;21.40;54.98;100628.41;5095733;28;20032;-25
2022/08/04 06:54:25;;;;;;;6.13;5.53;;;;;;;21.54;54.74;100631.19;5096029;28;20032;-25
2022/08/04 06:56:52;;;;;;;5.68;4.82;;;;;;;21.67;54.65;100631.38;5114672;28;20079;-25
2022/08/04 06:59:18;;;;;;;5.57;5.18;;;;;;;21.82;54.42;100636.84;5096026;28;20345;-25
2022/08/04 07:01:44;;;;;;;6.05;5.28;;;;;;;21.96;54.51;100629.81;5096258;28;20039;-26
2022/08/04 07:04:10;;;;;;;6.15;5.57;;;;;;;22.10;54.44;100634.34;5095742;28;20023;-25
2022/08/04 07:06:35;;;;;;;5.65;5.25;;;;;;;22.24;54.06;100633.56;5079200;28;20070;-25
2022/08/04 07:09:01;;;;;;;5.80;5.05;;;;;;;22.40;54.26;100633.50;5095793;28;20019;-26
2022/08/04 07:11:27;;;;;;;5.70;5.20;;;;;;;22.53;54.04;100628.25;5113517;28;20024;-26
2022/08/04 07:13:53;;;;;;;5.72;5.22;;;;;;;22.70;54.71;100637.16;5078380;28;20063;-25
2022/08/04 07:16:19;;;;;;;4.85;4.45;;;;;;;22.84;54.27;100617.50;5113916;28;20441;-25
2022/08/04 07:18:45;;;;;;;5.00;4.57;;;;;;;22.97;54.11;100620.28;5090777;28;20082;-25
2022/08/04 07:21:18;;;;;;;6.45;5.35;;;;;;;23.14;54.01;100620.06;5096923;28;20483;-25
2022/08/04 07:23:44;;;;;;;6.25;4.97;;;;;;;23.31;53.50;100618.16;5094682;28;20417;-25
2022/08/04 07:26:09;;;;;;;6.60;5.00;;;;;;;23.48;53.25;100609.03;5113891;28;20075;-25
2022/08/04 07:28:35;;;;;;;5.65;5.10;;;;;;;23.61;53.30;100611.75;5095079;28;20110;-25
2022/08/04 07:31:01;;;;;;;5.63;4.93;;;;;;;23.80;52.81;100610.53;5077776;28;20074;-25
2022/08/04 07:33:26;;;;;;;5.32;4.82;;;;;;;23.96;52.93;100613.09;5113209;28;20031;-25
2022/08/04 07:35:55;;;;;;;5.07;4.68;;;;;;;24.13;53.11;100608.41;5113064;28;20035;-25
2022/08/04 07:38:20;;;;;;;4.82;4.43;;;;;;;24.28;52.79;100602.00;5112998;28;20095;-25
2022/08/04 07:40:46;;;;;;;5.28;4.78;;;;;;;24.45;52.62;100608.91;5094474;28;20055;-26
2022/08/04 07:43:13;;;;;;;5.03;4.63;;;;;;;24.62;52.48;100614.09;5113104;28;20051;-25
2022/08/04 07:45:39;;;;;;;5.00;4.55;;;;;;;24.80;52.49;100609.25;5113606;28;20050;-25
2022/08/04 07:48:05;;;;;;;5.03;4.53;;;;;;;24.91;51.85;100603.97;5112788;28;20759;-25
2022/08/04 07:50:32;;;;;;;5.43;4.93;;;;;;;25.09;51.50;100611.75;5112332;28;20027;-25
2022/08/04 07:52:57;;;;;;;4.75;4.35;;;;;;;25.29;52.08;100614.84;5112905;28;20431;-25
2022/08/04 07:55:23;;;;;;;5.22;4.78;;;;;;;25.46;52.00;100617.16;5077771;28;20057;-25
2022/08/04 07:57:48;;;;;;;6.53;5.15;;;;;;;25.60;52.13;100604.50;5094542;28;20431;-26
2022/08/04 08:00:14;;;;;;;7.50;4.35;;;;;;;25.79;51.36;100608.53;5113437;28;20435;-26
2022/08/04 08:02:41;;;;;;;5.20;4.80;;;;;;;25.94;51.16;100601.97;5112351;28;20031;-25
2022/08/04 08:05:09;;;;;;;5.10;4.60;;;;;;;26.13;51.18;100606.84;5109887;28;20056;-26
2022/08/04 08:07:34;;;;;;;6.05;4.55;;;;;;;26.30;50.67;100601.19;5074466;28;20172;-25
2022/08/04 08:09:59;;;;;;;4.30;3.90;;;;;;;26.44;50.66;100600.94;5075271;28;20115;-25
2022/08/04 08:12:25;;;;;;;5.80;4.15;;;;;;;26.58;50.46;100601.72;5094950;28;20110;-25
2022/08/04 08:14:51;;;;;;;6.57;4.72;;;;;;;26.75;50.11;100594.97;5093969;28;20019;-25
2022/08/04 08:17:16;;;;;;;4.45;4.05;;;;;;;26.93;50.17;100592.63;5112485;28;20118;-25
2022/08/04 08:19:41;;;;;;;4.70;3.97;;;;;;;27.08;50.64;100600.53;5093750;28;20486;-25
2022/08/04 08:22:09;;;;;;;4.65;4.13;;;;;;;27.21;49.48;100595.00;5094253;28;20015;-25
2022/08/04 08:24:35;;;;;;;5.03;4.45;;;;;;;27.33;48.94;100594.00;5093948;28;20031;-25
2022/08/04 08:27:05;;;;;;;5.13;4.63;;;;;;;27.44;49.17;100590.38;5112668;28;20072;-25
2022/08/04 08:29:32;;;;;;;5.93;4.43;;;;;;;27.66;48.42;100588.66;5094241;28;20024;-25
2022/08/04 08:31:59;;;;;;;6.28;4.10;;;;;;;27.79;47.94;100581.22;5093577;28;20531;-25
2022/08/04 08:34:25;;;;;;;5.43;4.00;;;;;;;27.93;48.65;100584.59;5094293;28;20065;-25
2022/08/04 08:37:14;;;;;;;4.35;3.95;;;;;;;28.05;48.24;100580.84;5093862;28;20032;-25
2022/08/04 08:40:21;;;;;;;5.95;3.92;;;;;;;28.23;47.99;100580.28;5094148;28;20390;-25
2022/08/04 08:42:59;;;;;;;4.82;4.20;;;;;;;28.39;48.17;100574.41;5077058;28;20364;-25
2022/08/04 08:46:09;;;;;;;4.38;3.90;;;;;;;28.55;47.86;100571.19;5111949;28;20110;-25
2022/08/04 08:49:14;;;;;;;4.50;3.92;;;;;;;28.76;47.52;100570.31;5087242;28;20054;-25
2022/08/04 08:52:04;;;;;;;4.10;3.80;;;;;;;28.99;47.06;100569.28;5091569;28;20495;-25
2022/08/04 08:54:35;;;;;;;;;;;;;;;29.10;47.50;100571.91;5073471;28;20024;-25
2022/08/04 08:57:06;;;;;;;4.70;4.22;;;;;;;29.25;47.09;100572.38;5111442;28;19922;-25
2022/08/04 09:00:06;;;;;;;3.50;3.30;;;;;;;29.44;46.93;100570.72;5091733;28;20085;-25
2022/08/04 09:02:59;;;;;;;3.45;3.25;;;;;;;29.57;47.14;100574.03;5091644;28;20050;-25
2022/08/04 09:05:51;;;;;;;4.07;3.78;;;;;;;29.74;46.77;100573.47;5094834;28;20019;-25
2022/08/04 09:08:41;;;;;;;3.65;3.35;;;;;;;29.95;45.91;100578.78;5073355;28;20082;-25
2022/08/04 09:11:17;;;;;;;4.35;3.90;;;;;;;30.13;46.13;100578.91;5084002;28;20397;-25
2022/08/04 09:14:05;;;;;;;4.35;3.55;;;;;;;30.30;45.62;100574.59;5093138;28;20031;-25
2022/08/04 09:16:36;;;;;;;3.33;3.13;;;;;;;30.49;46.41;100583.72;5093123;28;20042;-25
2022/08/04 09:19:08;;;;;;;3.92;3.40;;;;;;;30.67;45.32;100575.66;5093424;28;20027;-25
2022/08/04 09:21:38;;;;;;;4.72;3.67;;;;;;;30.82;45.45;100572.47;5076535;28;20072;-25
2022/08/04 09:24:15;;;;;;;3.90;3.60;;;;;;;30.94;44.96;100564.97;5093109;28;20032;-26
2022/08/04 09:26:57;;;;;;;3.35;3.15;;;;;;;31.06;44.41;100562.91;5093713;28;20030;-25
2022/08/04 09:29:36;;;;;;;5.05;3.47;;;;;;;31.22;43.81;100564.97;5110639;28;20532;-23
2022/08/04 09:32:21;;;;;;;3.45;3.17;;;;;;;31.35;43.50;100561.91;5093395;28;20028;-26
2022/08/04 09:34:55;;;;;;;4.55;3.53;;;;;;;31.48;43.48;100567.81;5093253;28;20053;-26
2022/08/04 09:37:32;;;;;;;4.50;3.50;;;;;;;31.57;43.56;100565.22;5092080;28;20521;-26
2022/08/04 09:40:05;;;;;;;3.65;3.35;;;;;;;31.73;43.64;100564.47;5092985;28;20028;-26
2022/08/04 09:42:40;;;;;;;6.38;3.50;;;;;;;31.87;43.99;100561.22;5111464;28;20027;-24
2022/08/04 09:45:19;;;;;;;4.43;3.40;;;;;;;32.06;43.33;100555.75;5093153;28;20106;-26
2022/08/04 09:47:55;;;;;;;3.55;2.92;;;;;;;32.21;43.34;100551.44;5110602;28;20072;-26
2022/08/04 09:50:40;;;;;;;4.53;3.20;;;;;;;32.36;43.45;100546.25;5073505;28;20030;-26
2022/08/04 09:53:30;;;;;;;2.72;2.50;;;;;;;32.47;43.02;100549.78;5090473;28;20027;-25
2022/08/04 09:56:01;;;;;;;3.53;2.78;;;;;;;32.66;42.76;100547.81;5091344;28;20077;-25
2022/08/04 09:59:00;;;;;;;4.45;3.17;;;;;;;32.81;41.84;100539.88;5106992;28;20028;-26
2022/08/04 10:01:27;;;;;;;2.78;2.58;;;;;;;32.89;42.37;100542.63;5093276;28;20089;-26
2022/08/04 10:04:08;;;;;;;4.28;2.90;;;;;;;32.98;42.10;100543.53;5091797;28;20395;-26
2022/08/04 10:06:52;;;;;;;3.47;2.92;;;;;;;33.06;41.27;100543.56;5096935;28;20543;-25
2022/08/04 10:09:57;;;;;;;3.38;2.35;;;;;;;33.20;41.45;100542.06;5115520;28;20059;-25
2022/08/04 10:12:28;;;;;;;2.55;2.33;;;;;;;33.30;41.01;100544.66;5095116;28;20506;-25
2022/08/04 10:15:06;;;;;;;3.53;2.60;;;;;;;33.43;40.77;100543.34;5105500;28;20027;-25
2022/08/04 10:17:53;;;;;;;2.97;2.78;;;;;;;33.58;40.62;100538.94;5096672;28;20028;-25
2022/08/04 10:20:42;;;;;;;3.65;2.70;;;;;;;33.62;39.60;100542.19;5114668;28;20177;-25
2022/08/04 10:23:20;;;;;;;3.63;2.93;;;;;;;33.78;39.08;100536.72;5096731;28;20016;-25
2022/08/04 10:25:57;;;;;;;4.68;2.85;;;;;;;33.90;39.19;100537.22;5093520;28;20035;-25
2022/08/04 10:28:23;;;;;;;2.80;2.60;;;;;;;34.03;39.12;100533.09;5094710;28;20027;-25
2022/08/04 10:30:54;;;;;;;3.17;2.22;;;;;;;34.08;38.31;100528.00;5093524;28;20031;-25
2022/08/04 10:33:23;;;;;;;7.25;2.55;;;;;;;34.09;39.22;100521.50;5114807;28;20019;-25
2022/08/04 10:36:26;;;;;;;2.63;2.42;;;;;;;34.26;39.63;100516.00;5096190;28;20440;-25
2022/08/04 10:39:03;;;;;;;3.63;2.50;;;;;;;34.49;37.73;100526.22;4995283;28;20040;-26
2022/08/04 10:42:16;;;;;;;2.90;2.58;;;;;;;34.60;36.66;100523.09;5086559;28;20028;-25
2022/08/04 10:44:53;;;;;;;2.47;2.25;;;;;;;34.68;36.00;100522.25;5096336;28;20066;-25
2022/08/04 10:47:21;;;;;;;3.20;2.00;;;;;;;34.74;35.54;100517.94;5112937;28;20114;-25
2022/08/04 10:49:55;;;;;;;2.75;2.50;;;;;;;34.85;36.13;100505.72;5075269;28;20035;-25
2022/08/04 10:52:37;;;;;;;4.18;2.30;;;;;;;34.91;35.50;100514.09;5070199;28;20020;-25
2022/08/04 10:55:09;;;;;;;2.13;1.95;;;;;;;35.03;34.96;100510.94;5096079;28;20382;-25
2022/08/04 10:57:43;;;;;;;2.22;2.08;;;;;;;35.22;33.32;100504.19;5113922;28;20502;-25
2022/08/04 11:00:20;;;;;;;5.78;2.33;;;;;;;35.28;33.71;100497.13;5113712;28;20059;-25
2022/08/04 11:02:54;;;;;;;2.55;2.33;;;;;;;35.34;33.84;100501.84;5113412;28;20023;-25
2022/08/04 11:05:24;;;;;;;2.55;2.15;;;;;;;35.51;33.24;100493.53;5095436;28;20027;-25
2022/08/04 11:07:54;;;;;;;3.47;2.58;;;;;;;35.56;34.22;100493.81;5113764;28;20020;-25
2022/08/04 11:10:22;;;;;;;2.15;2.00;;;;;;;35.52;34.20;100495.22;5113940;28;20027;-25
2022/08/04 11:12:53;;;;;;;2.08;1.98;;;;;;;35.56;34.87;100499.31;5113721;28;20121;-25
2022/08/04 11:15:21;;;;;;;2.97;2.25;;;;;;;35.63;34.32;100500.28;5075036;28;20059;-25
2022/08/04 11:17:52;;;;;;;4.88;1.85;;;;;;;35.78;33.12;100505.81;5094347;28;20102;-25
2022/08/04 11:20:37;;;;;;;3.40;2.20;;;;;;;35.97;32.87;100498.09;5095627;28;20027;-25
2022/08/04 11:23:08;;;;;;;1.60;1.50;;;;;;;36.04;32.77;100496.31;5113730;28;20032;-25
2022/08/04 11:26:00;;;;;;;4.43;2.22;;;;;;;36.00;33.08;100485.94;5095758;28;20023;-26
2022/08/04 11:28:41;;;;;;;3.25;2.00;;;;;;;36.07;32.81;100489.59;5112452;28;20027;-25
2022/08/04 11:31:20;;;;;;;1.98;1.77;;;;;;;36.03;33.74;100482.78;5113209;28;20620;-24
2022/08/04 11:33:51;;;;;;;2.03;1.90;;;;;;;36.19;32.76;100499.13;5075180;28;20028;-25
2022/08/04 11:36:52;;;;;;;4.95;2.20;;;;;;;36.29;32.20;100489.75;5091160;28;20045;-25
2022/08/04 11:39:23;;;;;;;2.20;2.03;;;;;;;36.37;31.71;100492.38;5058585;28;20040;-25
2022/08/04 11:41:56;;;;;;;2.10;2.00;;;;;;;36.37;30.95;100486.06;5095249;28;20066;-25
2022/08/04 11:44:40;;;;;;;2.65;2.00;;;;;;;36.35;32.08;100483.50;5094404;28;20036;-25
2022/08/04 11:47:19;;;;;;;2.60;2.22;;;;;;;36.47;31.28;100484.72;5094581;28;20539;-25
2022/08/04 11:50:33;;;;;;;1.90;1.80;;;;;;;36.46;31.04;100485.78;5089604;28;20425;-24
2022/08/04 11:52:59;;;;;;;1.60;1.50;;;;;;;36.63;29.32;100492.94;5035190;28;20074;-25
2022/08/04 11:55:26;;;;;;;1.80;1.70;;;;;;;36.64;28.60;100490.00;5095055;28;20104;-25
2022/08/04 11:57:51;;;;;;;2.28;1.70;;;;;;;36.68;28.69;100496.84;5112717;28;20032;-25
2022/08/04 12:00:18;;;;;;;2.78;1.80;;;;;;;36.70;28.52;100491.16;5094626;28;20030;-25
2022/08/04 12:02:55;;;;;;;2.10;1.90;;;;;;;36.72;28.67;100484.47;5111727;28;20023;-25
2022/08/04 12:05:26;;;;;;;2.55;1.75;;;;;;;36.69;28.18;100475.72;5112622;28;20019;-25
2022/08/04 12:08:16;;;;;;;4.70;2.00;;;;;;;36.57;29.51;100476.19;5094549;28;20019;-25